createdAt,value
2023-02-05T00:00:19.411Z,8.03
2023-02-05T00:02:46.307Z,8.00
2023-02-05T00:05:12.900Z,8.40
2023-02-05T00:07:39.417Z,8.53
2023-02-05T00:10:06.352Z,8.13
2023-02-05T00:12:32.788Z,7.97
2023-02-05T00:14:59.292Z,7.17
2023-02-05T00:17:25.799Z,8.37
2023-02-05T00:19:52.242Z,8.17
2023-02-05T00:22:18.743Z,8.03
2023-02-05T00:24:45.227Z,7.63
2023-02-05T00:27:11.839Z,7.93
2023-02-05T00:29:38.371Z,7.47
2023-02-05T00:32:04.869Z,7.87
2023-02-05T00:34:31.401Z,8.13
2023-02-05T00:36:57.904Z,7.63
2023-02-05T00:39:24.385Z,8.43
2023-02-05T00:41:50.833Z,8.17
2023-02-05T00:44:17.575Z,7.13
2023-02-05T00:46:44.127Z,6.37
2023-02-05T00:49:10.619Z,7.30
2023-02-05T00:51:37.153Z,7.73
2023-02-05T00:54:03.705Z,6.83
2023-02-05T00:56:30.420Z,6.90
2023-02-05T00:58:57.680Z,7.27
2023-02-05T01:01:24.261Z,7.40
2023-02-05T01:03:51.207Z,6.60
2023-02-05T01:06:17.942Z,6.53
2023-02-05T01:08:44.431Z,6.87
2023-02-05T01:11:13.761Z,6.43
2023-02-05T01:13:40.204Z,6.93
2023-02-05T01:16:08.403Z,7.40
2023-02-05T01:18:34.968Z,6.70
2023-02-05T01:21:01.491Z,6.57
2023-02-05T01:23:28.087Z,6.73
2023-02-05T01:25:54.586Z,6.40
2023-02-05T01:28:21.144Z,6.67
2023-02-05T01:30:49.304Z,5.93
2023-02-05T01:33:16.219Z,6.40
2023-02-05T01:35:44.739Z,6.40
2023-02-05T01:38:12.721Z,6.73
2023-02-05T01:40:39.804Z,6.17
2023-02-05T01:43:12.011Z,6.03
2023-02-05T01:45:50.958Z,6.00
2023-02-05T01:48:28.292Z,6.33
2023-02-05T01:50:57.608Z,5.87
2023-02-05T01:53:30.299Z,6.50
2023-02-05T01:56:03.605Z,5.63
2023-02-05T01:58:32.777Z,6.13
2023-02-05T02:00:59.521Z,6.07
2023-02-05T02:03:27.956Z,6.23
2023-02-05T02:05:55.519Z,6.27
2023-02-05T02:08:22.416Z,6.17
2023-02-05T02:10:50.249Z,5.33
2023-02-05T02:13:18.670Z,6.27
2023-02-05T02:15:45.375Z,6.77
2023-02-05T02:18:28.024Z,6.23
2023-02-05T02:21:13.169Z,5.60
2023-02-05T02:23:59.619Z,5.03
2023-02-05T02:26:40.666Z,5.20
2023-02-05T02:29:08.642Z,5.53
2023-02-05T02:31:42.404Z,5.47
2023-02-05T02:34:33.441Z,6.40
2023-02-05T02:37:08.773Z,5.50
2023-02-05T02:39:42.422Z,5.43
2023-02-05T02:42:18.514Z,5.10
2023-02-05T02:44:51.172Z,5.70
2023-02-05T02:47:20.607Z,5.03
2023-02-05T02:49:54.058Z,5.10
2023-02-05T02:52:21.638Z,4.70
2023-02-05T02:54:50.560Z,4.27
2023-02-05T02:57:18.851Z,5.10
2023-02-05T02:59:47.680Z,4.80
2023-02-05T03:02:18.279Z,5.27
2023-02-05T03:04:49.284Z,5.40
2023-02-05T03:07:22.567Z,5.30
2023-02-05T03:10:04.626Z,5.13
2023-02-05T03:12:31.583Z,4.67
2023-02-05T03:14:58.138Z,5.53
2023-02-05T03:17:25.136Z,5.00
2023-02-05T03:19:58.058Z,5.43
2023-02-05T03:22:24.647Z,4.97
2023-02-05T03:24:51.181Z,5.63
2023-02-05T03:27:17.716Z,5.27
2023-02-05T03:29:45.052Z,5.17
2023-02-05T03:32:35.347Z,4.80
2023-02-05T03:35:13.444Z,5.03
2023-02-05T03:37:58.739Z,5.23
2023-02-05T03:40:33.211Z,5.03
2023-02-05T03:43:21.204Z,5.30
2023-02-05T03:46:38.512Z,5.27
2023-02-05T03:49:41.115Z,5.30
2023-02-05T03:52:16.021Z,4.77
2023-02-05T03:54:57.608Z,5.10
2023-02-05T03:57:32.814Z,5.60
2023-02-05T03:59:59.336Z,4.47
2023-02-05T04:02:25.952Z,4.70
2023-02-05T04:04:52.465Z,5.13
2023-02-05T04:07:19.052Z,4.70
2023-02-05T04:09:45.512Z,5.30
2023-02-05T04:12:11.990Z,4.73
2023-02-05T04:14:38.582Z,5.03
2023-02-05T04:17:05.079Z,4.80
2023-02-05T04:19:31.572Z,4.87
2023-02-05T04:21:58.069Z,4.60
2023-02-05T04:24:25.295Z,4.77
2023-02-05T04:26:52.354Z,4.30
2023-02-05T04:29:18.897Z,5.20
2023-02-05T04:31:45.603Z,5.07
2023-02-05T04:34:14.788Z,5.27
2023-02-05T04:36:41.339Z,5.17
2023-02-05T04:39:07.874Z,5.30
2023-02-05T04:41:34.486Z,5.10
2023-02-05T04:44:01.000Z,4.80
2023-02-05T04:46:27.475Z,4.83
2023-02-05T04:48:53.950Z,5.23
2023-02-05T04:51:20.422Z,4.90
2023-02-05T04:53:47.183Z,4.67
2023-02-05T04:56:16.372Z,4.33
2023-02-05T04:58:43.734Z,4.80
2023-02-05T05:01:15.760Z,4.93
2023-02-05T05:03:42.920Z,5.10
2023-02-05T05:06:09.637Z,4.67
2023-02-05T05:08:36.310Z,4.87
2023-02-05T05:11:07.564Z,4.63
2023-02-05T05:13:35.429Z,4.60
2023-02-05T05:16:02.159Z,5.20
2023-02-05T05:18:28.840Z,4.77
2023-02-05T05:20:55.320Z,5.40
2023-02-05T05:23:21.872Z,5.50
2023-02-05T05:25:48.844Z,5.43
2023-02-05T05:28:16.392Z,4.70
2023-02-05T05:30:45.375Z,4.93
2023-02-05T05:33:12.807Z,4.73
2023-02-05T05:35:39.397Z,4.70
2023-02-05T05:38:06.094Z,5.00
2023-02-05T05:40:51.187Z,5.23
2023-02-05T05:43:38.770Z,4.80
2023-02-05T05:46:06.558Z,5.10
2023-02-05T05:48:33.225Z,5.47
2023-02-05T05:50:59.677Z,4.57
2023-02-05T05:53:26.166Z,4.73
2023-02-05T05:55:52.619Z,5.00
2023-02-05T05:58:19.180Z,5.33
2023-02-05T06:00:45.742Z,5.40
2023-02-05T06:03:13.193Z,5.23
2023-02-05T06:05:39.680Z,5.07
2023-02-05T06:08:06.405Z,5.40
2023-02-05T06:10:33.247Z,4.57
2023-02-05T06:13:00.156Z,5.17
2023-02-05T06:15:29.792Z,4.60
2023-02-05T06:17:56.355Z,5.50
2023-02-05T06:20:22.891Z,4.43
2023-02-05T06:22:49.371Z,5.13
2023-02-05T06:25:16.084Z,5.53
2023-02-05T06:27:42.688Z,5.50
2023-02-05T06:30:10.457Z,5.17
2023-02-05T06:32:37.137Z,5.20
2023-02-05T06:35:03.754Z,4.87
2023-02-05T06:37:46.125Z,5.80
2023-02-05T06:40:15.573Z,5.17
2023-02-05T06:42:42.239Z,5.00
2023-02-05T06:45:10.065Z,5.17
2023-02-05T06:47:37.226Z,5.00
2023-02-05T06:50:05.076Z,4.90
2023-02-05T06:52:31.633Z,5.20
2023-02-05T06:54:58.210Z,5.50
2023-02-05T06:57:24.828Z,5.20
2023-02-05T06:59:51.278Z,5.53
2023-02-05T07:02:17.822Z,4.90
2023-02-05T07:04:44.269Z,4.70
2023-02-05T07:07:10.699Z,5.37
2023-02-05T07:09:37.456Z,5.53
2023-02-05T07:12:04.118Z,5.17
2023-02-05T07:14:31.516Z,5.00
2023-02-05T07:16:58.069Z,5.03
2023-02-05T07:19:24.560Z,5.07
2023-02-05T07:21:51.179Z,4.97
2023-02-05T07:24:17.685Z,5.27
2023-02-05T07:26:45.281Z,5.33
2023-02-05T07:29:12.052Z,5.30
2023-02-05T07:31:38.907Z,5.00
2023-02-05T07:34:05.486Z,4.53
2023-02-05T07:36:31.964Z,5.33
2023-02-05T07:38:58.553Z,5.30
2023-02-05T07:41:26.800Z,4.87
2023-02-05T07:43:54.469Z,5.00
2023-02-05T07:46:21.936Z,4.73
2023-02-05T07:48:48.501Z,4.57
2023-02-05T07:51:20.010Z,4.40
2023-02-05T07:53:47.019Z,5.00
2023-02-05T07:56:13.834Z,4.97
2023-02-05T07:58:40.490Z,4.90
2023-02-05T08:01:07.298Z,4.80
2023-02-05T08:03:34.657Z,4.43
2023-02-05T08:06:08.157Z,4.90
2023-02-05T08:08:34.877Z,4.80
2023-02-05T08:11:05.970Z,4.67
2023-02-05T08:13:33.765Z,5.20
2023-02-05T08:16:04.917Z,4.50
2023-02-05T08:18:31.597Z,5.03
2023-02-05T08:20:58.071Z,5.17
2023-02-05T08:23:24.626Z,4.60
2023-02-05T08:25:55.109Z,4.80
2023-02-05T08:28:22.356Z,4.33
2023-02-05T08:30:48.943Z,5.20
2023-02-05T08:33:15.612Z,4.60
2023-02-05T08:35:42.094Z,4.73
2023-02-05T08:38:08.610Z,4.80
2023-02-05T08:40:35.829Z,4.77
2023-02-05T08:43:02.722Z,5.57
2023-02-05T08:45:30.323Z,5.17
2023-02-05T08:47:56.978Z,5.57
2023-02-05T08:50:23.808Z,4.53
2023-02-05T08:52:50.426Z,5.20
2023-02-05T08:55:20.818Z,4.90
2023-02-05T08:57:47.396Z,4.93
2023-02-05T09:00:15.156Z,5.20
2023-02-05T09:02:42.983Z,5.30
2023-02-05T09:05:09.972Z,5.50
2023-02-05T09:07:40.834Z,5.10
2023-02-05T09:10:12.194Z,5.60
2023-02-05T09:12:39.026Z,5.00
2023-02-05T09:15:06.578Z,5.40
2023-02-05T09:17:33.121Z,4.67
2023-02-05T09:19:59.760Z,5.00
2023-02-05T09:22:26.237Z,5.03
2023-02-05T09:24:53.096Z,4.13
2023-02-05T09:27:19.563Z,4.70
2023-02-05T09:29:46.141Z,4.77
2023-02-05T09:32:13.473Z,4.57
2023-02-05T09:34:40.039Z,4.83
2023-02-05T09:37:06.569Z,4.83
2023-02-05T09:42:22.034Z,4.53
2023-02-05T09:45:03.896Z,4.73
2023-02-05T09:47:36.614Z,4.50
2023-02-05T09:50:29.185Z,4.03
2023-02-05T09:53:05.950Z,3.70
2023-02-05T09:55:44.882Z,3.63
2023-02-05T09:58:15.235Z,4.10
2023-02-05T10:01:12.917Z,4.33
2023-02-05T10:03:48.691Z,4.13
2023-02-05T10:06:33.745Z,4.23
2023-02-05T10:09:17.910Z,4.53
2023-02-05T10:12:28.844Z,4.63
2023-02-05T10:15:16.025Z,4.43
2023-02-05T10:17:54.961Z,4.50
2023-02-05T10:20:27.142Z,4.33
2023-02-05T10:23:12.909Z,4.10
2023-02-05T10:25:51.084Z,4.40
2023-02-05T10:28:37.011Z,4.67
2023-02-05T10:31:25.142Z,4.20
2023-02-05T10:33:59.948Z,4.57
2023-02-05T10:36:27.019Z,4.40
2023-02-05T10:38:55.931Z,4.20
2023-02-05T10:41:45.234Z,4.00
2023-02-05T10:44:17.856Z,4.57
2023-02-05T10:46:51.675Z,4.83
2023-02-05T10:49:42.710Z,4.10
2023-02-05T10:52:13.830Z,4.00
2023-02-05T10:54:41.640Z,4.80
2023-02-05T10:57:19.186Z,4.33
2023-02-05T10:59:54.451Z,4.50
2023-02-05T11:02:22.178Z,4.53
2023-02-05T11:04:53.262Z,5.40
2023-02-05T11:07:30.502Z,5.33
2023-02-05T11:10:23.508Z,5.60
2023-02-05T11:12:53.525Z,4.73
2023-02-05T11:15:26.176Z,5.13
2023-02-05T11:17:57.445Z,5.20
2023-02-05T11:20:31.453Z,5.23
2023-02-05T11:23:20.303Z,5.30
2023-02-05T11:25:58.906Z,5.20
2023-02-05T11:28:30.186Z,4.67
2023-02-05T11:30:57.532Z,4.70
2023-02-05T11:33:27.621Z,5.07
2023-02-05T11:36:02.072Z,4.77
2023-02-05T11:38:42.338Z,5.33
2023-02-05T11:41:10.228Z,5.13
2023-02-05T11:43:49.826Z,5.40
2023-02-05T11:46:24.510Z,4.77
2023-02-05T11:48:57.977Z,5.10
2023-02-05T11:51:36.391Z,4.50
2023-02-05T11:54:08.986Z,4.60
2023-02-05T11:56:35.485Z,4.60
2023-02-05T11:59:05.317Z,4.20
2023-02-05T12:01:34.095Z,4.20
2023-02-05T12:04:14.998Z,4.10
2023-02-05T12:06:46.325Z,4.27
2023-02-05T12:09:19.451Z,3.87
2023-02-05T12:12:11.863Z,3.93
2023-02-05T12:15:23.848Z,4.20
2023-02-05T12:18:37.203Z,4.37
2023-02-05T12:21:06.474Z,3.80
2023-02-05T12:23:35.959Z,4.03
2023-02-05T12:26:17.787Z,4.10
2023-02-05T12:29:15.225Z,3.70
2023-02-05T12:32:13.888Z,3.67
2023-02-05T12:34:49.085Z,3.90
2023-02-05T12:37:27.740Z,4.27
2023-02-05T12:39:59.329Z,3.77
2023-02-05T12:42:36.715Z,3.70
2023-02-05T12:45:08.336Z,4.33
2023-02-05T12:47:37.551Z,4.27
2023-02-05T12:50:25.284Z,3.80
2023-02-05T12:53:21.597Z,4.37
2023-02-05T12:55:50.865Z,4.50
2023-02-05T12:58:19.044Z,4.17
2023-02-05T13:00:51.082Z,3.77
2023-02-05T13:03:32.773Z,3.90
2023-02-05T13:06:06.612Z,4.97
2023-02-05T13:08:47.096Z,4.17
2023-02-05T13:11:26.926Z,4.23
2023-02-05T13:13:58.180Z,3.90
2023-02-05T13:16:37.821Z,3.47
2023-02-05T13:19:14.677Z,2.90
2023-02-05T13:22:00.433Z,3.07
2023-02-05T13:24:52.864Z,2.97
2023-02-05T13:27:44.254Z,3.07
2023-02-05T13:30:20.813Z,2.60
2023-02-05T13:32:50.344Z,2.67
2023-02-05T13:35:16.831Z,2.93
2023-02-05T13:37:55.530Z,2.73
2023-02-05T13:40:45.768Z,2.83
2023-02-05T13:43:35.156Z,3.00
2023-02-05T13:46:24.889Z,3.13
2023-02-05T13:49:09.258Z,2.80
2023-02-05T13:51:38.912Z,2.67
2023-02-05T13:54:39.127Z,3.10
2023-02-05T13:57:33.429Z,3.00
2023-02-05T14:00:00.480Z,2.77
2023-02-05T14:02:46.713Z,2.77
2023-02-05T14:05:13.753Z,2.90
2023-02-05T14:07:49.002Z,3.17
2023-02-05T14:10:36.407Z,3.00
2023-02-05T14:13:08.759Z,3.20
2023-02-05T14:15:40.713Z,3.20
2023-02-05T14:18:10.219Z,3.30
2023-02-05T14:20:42.034Z,2.63
2023-02-05T14:23:45.956Z,3.40
2023-02-05T14:26:13.154Z,3.13
2023-02-05T14:28:48.508Z,3.40
2023-02-05T14:31:46.453Z,3.00
2023-02-05T14:34:34.357Z,3.20
2023-02-05T14:37:01.221Z,3.27
2023-02-05T14:39:35.406Z,2.90
2023-02-05T14:42:05.513Z,3.60
2023-02-05T14:44:34.363Z,2.80
2023-02-05T14:47:19.657Z,2.60
2023-02-05T14:49:48.073Z,2.90
2023-02-05T14:52:34.320Z,2.50
2023-02-05T14:55:16.788Z,2.77
2023-02-05T14:57:52.141Z,3.33
2023-02-05T15:00:36.261Z,2.83
2023-02-05T15:03:16.986Z,3.00
2023-02-05T15:05:43.470Z,3.40
2023-02-05T15:08:28.188Z,2.80
2023-02-05T15:11:49.217Z,3.10
2023-02-05T15:14:21.602Z,3.23
2023-02-05T15:17:13.978Z,3.87
2023-02-05T15:19:43.449Z,3.23
2023-02-05T15:22:19.964Z,4.10
2023-02-05T15:24:48.502Z,3.67
2023-02-05T15:27:19.162Z,4.17
2023-02-05T15:29:48.074Z,4.03
2023-02-05T15:32:19.206Z,3.67
2023-02-05T15:34:57.856Z,4.27
2023-02-05T15:37:31.555Z,4.27
2023-02-05T15:40:11.766Z,4.37
2023-02-05T15:42:41.535Z,4.30
2023-02-05T15:45:24.724Z,4.00
2023-02-05T15:48:00.251Z,4.23
2023-02-05T15:50:26.960Z,5.30
2023-02-05T15:52:53.556Z,4.43
2023-02-05T15:55:22.039Z,4.47
2023-02-05T15:57:48.740Z,4.10
2023-02-05T16:00:25.255Z,4.20
2023-02-05T16:02:57.704Z,4.50
2023-02-05T16:05:25.345Z,4.30
2023-02-05T16:07:57.138Z,4.00
2023-02-05T16:10:29.282Z,4.47
2023-02-05T16:13:05.395Z,4.63
2023-02-05T16:15:41.073Z,4.50
2023-02-05T16:18:19.836Z,4.40
2023-02-05T16:20:53.348Z,4.40
2023-02-05T16:23:32.590Z,4.30
2023-02-05T16:26:18.201Z,4.47
2023-02-05T16:28:48.761Z,4.13
2023-02-05T16:31:17.335Z,3.53
2023-02-05T16:33:46.380Z,3.67
2023-02-05T16:36:20.008Z,3.83
2023-02-05T16:38:50.940Z,4.20
2023-02-05T16:41:31.291Z,4.20
2023-02-05T16:43:59.396Z,4.43
2023-02-05T16:46:28.765Z,4.20
2023-02-05T16:49:00.566Z,4.20
2023-02-05T16:51:37.385Z,5.23
2023-02-05T16:54:31.697Z,4.87
2023-02-05T16:57:00.940Z,4.73
2023-02-05T16:59:34.749Z,4.77
2023-02-05T17:02:03.157Z,5.20
2023-02-05T17:04:34.324Z,5.33
2023-02-05T17:07:01.996Z,6.97
2023-02-05T17:09:34.983Z,5.70
2023-02-05T17:12:19.389Z,6.07
2023-02-05T17:15:16.112Z,8.20
2023-02-05T17:17:51.460Z,6.47
2023-02-05T17:20:19.847Z,7.07
2023-02-05T17:23:07.286Z,7.23
2023-02-05T17:25:51.878Z,6.70
2023-02-05T17:28:25.486Z,7.20
2023-02-05T17:30:54.185Z,6.97
2023-02-05T17:33:23.231Z,7.07
2023-02-05T17:35:50.068Z,7.50
2023-02-05T17:38:17.366Z,7.57
2023-02-05T17:40:44.310Z,7.53
2023-02-05T17:43:10.917Z,7.57
2023-02-05T17:45:43.240Z,7.50
2023-02-05T17:48:10.291Z,7.53
2023-02-05T17:50:37.902Z,7.87
2023-02-05T17:53:04.538Z,8.23
2023-02-05T17:55:31.244Z,6.77
2023-02-05T17:57:57.981Z,7.67
2023-02-05T18:00:27.602Z,7.73
2023-02-05T18:02:54.617Z,8.37
2023-02-05T18:05:21.864Z,7.97
2023-02-05T18:07:50.051Z,8.27
2023-02-05T18:10:19.528Z,8.43
2023-02-05T18:12:46.037Z,9.47
2023-02-05T18:15:13.524Z,9.63
2023-02-05T18:17:41.195Z,9.70
2023-02-05T18:20:08.861Z,10.97
2023-02-05T18:22:35.347Z,13.33
2023-02-05T18:25:01.895Z,14.30
2023-02-05T18:27:28.694Z,11.23
2023-02-05T18:29:55.292Z,12.50
2023-02-05T18:32:22.610Z,12.23
2023-02-05T18:34:49.378Z,13.63
2023-02-05T18:37:16.619Z,10.83
2023-02-05T18:39:43.706Z,12.97
2023-02-05T18:42:11.684Z,12.00
2023-02-05T18:44:38.752Z,12.23
2023-02-05T18:47:06.012Z,13.10
2023-02-05T18:49:33.668Z,14.43
2023-02-05T18:52:00.733Z,16.13
2023-02-05T18:54:27.360Z,20.47
2023-02-05T18:56:54.809Z,16.13
2023-02-05T18:59:24.097Z,21.70
2023-02-05T19:01:51.209Z,33.07
2023-02-05T19:04:21.038Z,33.67
2023-02-05T19:06:52.437Z,30.07
2023-02-05T19:09:23.664Z,28.50
2023-02-05T19:11:50.890Z,23.00
2023-02-05T19:14:18.972Z,20.07
2023-02-05T19:16:47.082Z,19.73
2023-02-05T19:19:16.373Z,19.60
2023-02-05T19:21:44.877Z,18.93
2023-02-05T19:24:13.818Z,19.73
2023-02-05T19:26:45.082Z,21.27
2023-02-05T19:29:16.695Z,21.53
2023-02-05T19:31:44.011Z,26.60
2023-02-05T19:34:11.957Z,25.57
2023-02-05T19:36:38.812Z,24.53
2023-02-05T19:39:07.424Z,25.23
2023-02-05T19:41:35.230Z,23.73
2023-02-05T19:44:04.170Z,24.57
2023-02-05T19:46:39.719Z,24.73
2023-02-05T19:49:11.590Z,26.13
2023-02-05T19:51:38.342Z,28.73
2023-02-05T19:54:06.632Z,31.13
2023-02-05T19:56:35.631Z,34.07
2023-02-05T19:59:02.122Z,31.80
2023-02-05T20:01:30.968Z,34.07
2023-02-05T20:03:59.770Z,35.03
2023-02-05T20:06:29.593Z,37.27
2023-02-05T20:08:56.577Z,33.67
2023-02-05T20:11:23.376Z,30.60
2023-02-05T20:13:50.396Z,29.93
2023-02-05T20:16:21.161Z,29.23
2023-02-05T20:18:52.368Z,28.03
2023-02-05T20:21:19.175Z,29.50
2023-02-05T20:23:46.951Z,30.73
2023-02-05T20:26:14.600Z,30.70
2023-02-05T20:29:11.993Z,29.30
2023-02-05T20:31:42.933Z,28.60
2023-02-05T20:34:18.618Z,30.07
2023-02-05T20:36:47.037Z,33.33
2023-02-05T20:39:14.241Z,32.50
2023-02-05T20:41:40.916Z,34.83
2023-02-05T20:44:07.580Z,37.83
2023-02-05T20:46:34.656Z,38.87
2023-02-05T20:49:01.193Z,41.07
2023-02-05T20:51:27.920Z,40.67
2023-02-05T20:53:58.671Z,38.50
2023-02-05T20:56:27.247Z,36.67
2023-02-05T20:58:54.600Z,36.90
2023-02-05T21:01:23.428Z,37.60
2023-02-05T21:03:52.441Z,38.23
2023-02-05T21:06:20.495Z,38.17
2023-02-05T21:08:47.879Z,37.53
2023-02-05T21:11:16.065Z,36.37
2023-02-05T21:13:43.580Z,37.07
2023-02-05T21:16:11.754Z,38.00
2023-02-05T21:18:40.292Z,37.50
2023-02-05T21:21:12.878Z,36.87
2023-02-05T21:23:40.167Z,35.60
2023-02-05T21:26:07.366Z,37.97
2023-02-05T21:28:34.343Z,35.23
2023-02-05T21:31:06.178Z,35.37
2023-02-05T21:33:33.341Z,36.27
2023-02-05T21:36:08.636Z,34.43
2023-02-05T21:38:39.681Z,38.63
2023-02-05T21:41:08.200Z,37.33
2023-02-05T21:43:35.090Z,37.57
2023-02-05T21:46:06.701Z,38.63
2023-02-05T21:48:33.494Z,40.77
2023-02-05T21:51:00.273Z,41.63
2023-02-05T21:53:27.810Z,41.53
2023-02-05T21:55:54.517Z,41.87
2023-02-05T21:58:21.719Z,42.77
2023-02-05T22:00:48.212Z,40.80
2023-02-05T22:03:14.698Z,40.87
2023-02-05T22:05:41.173Z,40.77
2023-02-05T22:08:11.603Z,39.57
2023-02-05T22:10:38.348Z,39.63
2023-02-05T22:13:05.123Z,41.53
2023-02-05T22:15:31.665Z,42.97
2023-02-05T22:17:58.185Z,41.00
2023-02-05T22:20:24.648Z,41.07
2023-02-05T22:22:51.104Z,39.90
2023-02-05T22:25:17.882Z,40.97
2023-02-05T22:27:44.609Z,41.97
2023-02-05T22:30:11.772Z,39.83
2023-02-05T22:32:38.252Z,40.67
2023-02-05T22:35:04.926Z,37.73
2023-02-05T22:37:31.454Z,38.93
2023-02-05T22:39:57.956Z,39.03
2023-02-05T22:42:24.848Z,39.23
2023-02-05T22:44:51.297Z,38.00
2023-02-05T22:47:17.947Z,37.83
2023-02-05T22:49:44.469Z,38.70
2023-02-05T22:52:10.930Z,43.03
2023-02-05T22:54:37.602Z,42.73
2023-02-05T22:57:04.250Z,41.13
2023-02-05T22:59:30.686Z,40.50
2023-02-05T23:01:57.504Z,40.20
2023-02-05T23:04:24.068Z,43.53
2023-02-05T23:06:50.505Z,43.87
2023-02-05T23:09:18.525Z,41.37
2023-02-05T23:11:45.438Z,42.70
2023-02-05T23:14:14.442Z,41.93
2023-02-05T23:16:42.525Z,42.03
2023-02-05T23:19:19.667Z,43.43
2023-02-05T23:21:47.005Z,42.37
2023-02-05T23:24:13.648Z,45.47
2023-02-05T23:26:42.900Z,46.27
2023-02-05T23:29:10.976Z,49.43
2023-02-05T23:31:37.645Z,46.77
2023-02-05T23:34:04.587Z,52.97
2023-02-05T23:36:31.169Z,50.30
2023-02-05T23:38:57.676Z,50.37
2023-02-05T23:41:36.566Z,50.07
2023-02-05T23:44:10.521Z,50.20
2023-02-05T23:46:37.556Z,50.87
2023-02-05T23:49:04.972Z,49.27
2023-02-05T23:51:32.103Z,49.83
2023-02-05T23:53:58.969Z,51.60
2023-02-05T23:56:25.809Z,48.80
2023-02-05T23:58:52.348Z,50.40
